Time;durP1;ratioP1;P1;durP2;ratioP2;P2;SDS_P1;SDS_P2;PMS_P1;PMS_P2;Temp;Humidity;BMP_temperature;BMP_pressure;BME280_temperature;BME280_humidity;BME280_pressure;Samples;Min_cycle;Max_cycle;Signal;HPM_P1;HPM_P2
2022/11/20 00:02:17;;;;;;;108.60;41.90;;;;;;;-4.74;78.97;99992.86;103340;1303;24441;-55
2022/11/20 00:04:50;;;;;;;114.60;46.50;;;;;;;-4.77;78.56;99992.60;103453;1278;22509;-56
2022/11/20 00:07:21;;;;;;;117.20;44.40;;;;;;;-4.81;78.89;99997.17;103473;1279;22891;-55
2022/11/20 00:09:53;;;;;;;107.00;42.50;;;;;;;-4.80;79.16;99995.32;103560;1303;22941;-56
2022/11/20 00:12:24;;;;;;;105.70;39.80;;;;;;;-4.80;79.32;99996.79;103490;1271;22605;-55
2022/11/20 00:14:56;;;;;;;111.50;43.60;;;;;;;-4.79;79.32;99997.11;103470;1278;23983;-52
2022/11/20 00:17:28;;;;;;;120.30;50.50;;;;;;;-4.78;79.45;99992.30;103349;1271;24241;-57
2022/11/20 00:20:00;;;;;;;136.20;52.90;;;;;;;-4.76;79.49;99988.17;103350;1272;23063;-56
2022/11/20 00:22:32;;;;;;;122.10;48.20;;;;;;;-4.75;79.58;99988.10;103461;1287;24224;-57
2022/11/20 00:25:04;;;;;;;115.80;48.10;;;;;;;-4.75;79.58;99989.74;103526;1279;22653;-54
2022/11/20 00:27:36;;;;;;;119.70;48.10;;;;;;;-4.74;79.67;99985.31;103434;1303;23158;-56
2022/11/20 00:30:09;;;;;;;103.40;41.90;;;;;;;-4.75;79.60;99991.83;103421;1279;22520;-56
2022/11/20 00:32:41;;;;;;;106.00;43.80;;;;;;;-4.75;79.66;99993.63;103450;1279;24443;-55
2022/11/20 00:35:13;;;;;;;117.20;45.30;;;;;;;-4.76;79.78;99996.81;103466;1272;22542;-53
2022/11/20 00:37:46;;;;;;;114.30;44.10;;;;;;;-4.76;79.59;99994.32;103491;1288;22553;-53
2022/11/20 00:40:18;;;;;;;103.00;42.60;;;;;;;-4.78;79.57;99989.41;103372;1279;22548;-57
2022/11/20 00:42:51;;;;;;;113.10;45.20;;;;;;;-4.78;79.81;99992.67;103310;1294;22668;-57
2022/11/20 00:45:22;;;;;;;111.00;44.50;;;;;;;-4.77;79.82;99990.97;103395;1279;25647;-54
2022/11/20 00:47:54;;;;;;;105.20;42.50;;;;;;;-4.77;79.73;99991.05;103441;1278;22690;-57
2022/11/20 00:50:26;;;;;;;102.70;40.70;;;;;;;-4.76;79.67;99994.17;103600;1279;24433;-55
2022/11/20 00:52:58;;;;;;;103.70;38.40;;;;;;;-4.76;79.52;99994.33;103457;1279;26646;-58
2022/11/20 00:55:30;;;;;;;93.80;38.80;;;;;;;-4.77;79.61;99994.55;103406;1271;22640;-54
2022/11/20 00:58:01;;;;;;;96.60;39.90;;;;;;;-4.78;79.73;99997.90;103551;1300;25390;-55
2022/11/20 01:00:32;;;;;;;101.80;39.40;;;;;;;-4.79;79.42;99999.83;103613;1272;22978;-57
2022/11/20 01:03:04;;;;;;;108.20;41.90;;;;;;;-4.82;79.34;100003.70;103438;1303;24314;-53
2022/11/20 01:05:38;;;;;;;99.90;41.70;;;;;;;-4.85;79.37;100004.08;103456;1279;22499;-55
2022/11/20 01:08:10;;;;;;;110.60;44.00;;;;;;;-4.84;79.80;100011.32;103455;1272;24288;-58
2022/11/20 01:10:42;;;;;;;110.90;43.90;;;;;;;-4.84;79.66;100013.42;103432;1272;25075;-54
2022/11/20 01:16:08;;;;;;;99.50;39.70;;;;;;;-4.86;79.61;100007.66;103403;1301;22489;-55
2022/11/20 01:18:41;;;;;;;97.90;38.30;;;;;;;-4.86;79.69;100009.52;103507;1279;23152;-59
2022/11/20 01:21:15;;;;;;;85.40;35.90;;;;;;;-4.89;79.36;100008.73;103574;1303;22525;-58
2022/11/20 01:23:48;;;;;;;91.50;36.20;;;;;;;-4.92;79.61;100012.36;103397;1279;24357;-54
2022/11/20 01:26:21;;;;;;;93.20;36.70;;;;;;;-4.92;79.77;100011.05;103335;1303;22756;-56
2022/11/20 01:28:54;;;;;;;95.70;38.30;;;;;;;-4.92;79.77;100011.43;103469;1303;22497;-54
2022/11/20 01:31:27;;;;;;;98.40;40.60;;;;;;;-4.94;79.81;100007.62;103436;1278;22864;-56
2022/11/20 01:34:00;;;;;;;97.60;39.00;;;;;;;-4.95;80.01;100005.27;103450;1303;24308;-55
2022/11/20 01:36:33;;;;;;;109.90;40.50;;;;;;;-4.97;79.91;100005.58;103646;1280;22620;-56
2022/11/20 01:39:07;;;;;;;102.60;39.70;;;;;;;-4.97;80.16;100004.04;103489;1272;25952;-55
2022/11/20 01:44:49;;;;;;;89.40;35.80;;;;;;;-4.97;80.15;100006.11;103371;1303;24475;-56
2022/11/20 01:47:26;;;;;;;86.20;34.50;;;;;;;-5.00;80.02;100003.54;103535;1272;24936;-55
2022/11/20 01:50:04;;;;;;;89.80;33.40;;;;;;;-5.04;80.01;99999.70;103675;1279;22597;-56
2022/11/20 01:52:39;;;;;;;85.30;32.70;;;;;;;-5.06;80.30;99998.61;103365;1279;22663;-56
2022/11/20 01:55:14;;;;;;;80.10;32.20;;;;;;;-5.05;80.51;99997.13;103351;1277;22499;-58
2022/11/20 01:57:48;;;;;;;87.80;30.60;;;;;;;-5.05;80.40;99995.27;103511;1296;22629;-57
2022/11/20 02:00:23;;;;;;;84.70;33.10;;;;;;;-5.09;80.12;99993.45;103577;1280;22476;-57
2022/11/20 02:02:58;;;;;;;83.80;36.50;;;;;;;-5.10;80.39;99999.44;103465;1289;22540;-56
2022/11/20 02:05:34;;;;;;;90.20;39.00;;;;;;;-5.11;80.25;99997.57;103566;1279;22597;-57
2022/11/20 02:08:07;;;;;;;82.90;32.90;;;;;;;-5.12;80.31;99994.69;103453;1279;22494;-57
2022/11/20 02:10:38;;;;;;;87.80;34.30;;;;;;;-5.11;80.37;99994.14;103367;1303;22625;-56
2022/11/20 02:15:59;;;;;;;83.50;31.50;;;;;;;-5.09;80.49;99989.72;103415;1303;23212;-55
2022/11/20 02:18:31;;;;;;;73.90;30.10;;;;;;;-5.09;80.48;99989.95;103579;1264;22586;-56
2022/11/20 02:21:08;;;;;;;74.70;29.20;;;;;;;-5.11;80.32;99986.59;103463;1279;25474;-54
2022/11/20 02:23:42;;;;;;;67.50;28.80;;;;;;;-5.12;80.49;99984.49;103379;1303;22676;-57
2022/11/20 02:26:17;;;;;;;73.50;29.10;;;;;;;-5.14;80.25;99985.27;103459;1271;22549;-56
2022/11/20 02:28:49;;;;;;;74.30;27.50;;;;;;;-5.18;80.43;99985.32;103429;1271;22552;-55
2022/11/20 02:31:21;;;;;;;72.30;27.70;;;;;;;-5.18;80.44;99984.23;103453;1279;23013;-57
2022/11/20 02:33:59;;;;;;;64.00;26.90;;;;;;;-5.19;80.43;99989.33;103547;1303;22471;-58
2022/11/20 02:36:33;;;;;;;67.00;29.40;;;;;;;-5.21;80.48;99990.89;103616;1279;24420;-54
2022/11/20 02:39:06;;;;;;;73.10;27.00;;;;;;;-5.21;80.48;99992.83;103478;1279;22720;-53
2022/11/20 02:41:39;;;;;;;71.70;27.00;;;;;;;-5.22;80.48;99995.48;103432;1272;25594;-54
2022/11/20 02:44:10;;;;;;;68.10;27.80;;;;;;;-5.23;80.29;99992.20;103365;1278;24394;-56
2022/11/20 02:46:42;;;;;;;76.20;30.20;;;;;;;-5.28;80.39;99990.52;103535;1272;22628;-55
2022/11/20 02:49:13;;;;;;;72.80;28.30;;;;;;;-5.29;80.56;99991.61;103377;1281;23994;-56
2022/11/20 02:51:45;;;;;;;68.60;29.20;;;;;;;-5.30;80.49;99989.82;103395;1303;22518;-54
2022/11/20 02:54:16;;;;;;;72.90;30.30;;;;;;;-5.30;80.15;99987.96;103447;1279;22523;-54
2022/11/20 02:56:48;;;;;;;75.00;29.90;;;;;;;-5.33;79.98;99987.08;103505;1272;22493;-54
2022/11/20 02:59:19;;;;;;;69.80;28.10;;;;;;;-5.37;80.05;99990.94;103533;1275;22569;-56
2022/11/20 03:01:51;;;;;;;77.30;30.00;;;;;;;-5.41;79.91;99990.91;103442;1279;22597;-55
2022/11/20 03:04:22;;;;;;;77.70;28.90;;;;;;;-5.45;79.73;99996.87;103392;1279;22937;-56
2022/11/20 03:06:54;;;;;;;77.30;28.80;;;;;;;-5.49;80.08;99991.09;103331;1303;24264;-55
2022/11/20 03:09:26;;;;;;;74.10;30.60;;;;;;;-5.47;80.23;99994.05;103705;1276;25574;-58
2022/11/20 03:11:57;;;;;;;73.90;29.00;;;;;;;-5.47;80.53;99989.85;103454;1279;23204;-57
2022/11/20 03:14:29;;;;;;;70.70;26.50;;;;;;;-5.47;80.44;99983.41;103473;1279;22792;-56
2022/11/20 03:17:03;;;;;;;68.40;27.60;;;;;;;-5.47;80.47;99978.52;103457;1301;23146;-55
2022/11/20 03:19:35;;;;;;;74.80;28.50;;;;;;;-5.49;80.32;99982.85;103505;1271;22584;-58
2022/11/20 03:22:07;;;;;;;70.90;26.40;;;;;;;-5.51;80.40;99982.67;103489;1279;22931;-57
2022/11/20 03:24:38;;;;;;;72.40;29.30;;;;;;;-5.53;80.20;99981.27;103399;1303;22761;-56
2022/11/20 03:27:09;;;;;;;74.00;29.80;;;;;;;-5.54;80.32;99981.16;103360;1278;22569;-54
2022/11/20 03:29:41;;;;;;;68.70;28.20;;;;;;;-5.55;80.50;99981.80;103332;1288;22709;-55
2022/11/20 03:32:12;;;;;;;75.70;29.90;;;;;;;-5.54;80.52;99981.16;103507;1288;22581;-55
2022/11/20 03:34:44;;;;;;;70.80;29.40;;;;;;;-5.55;80.41;99981.55;103485;1284;22972;-56
2022/11/20 03:37:16;;;;;;;75.60;29.60;;;;;;;-5.59;80.10;99982.70;103523;1279;22481;-58
2022/11/20 03:39:48;;;;;;;76.60;29.70;;;;;;;-5.60;80.29;99986.34;103493;1303;22766;-56
2022/11/20 03:45:09;;;;;;;80.20;32.30;;;;;;;-5.62;80.41;99982.90;103339;1279;22676;-56
2022/11/20 03:47:41;;;;;;;79.90;30.30;;;;;;;-5.63;80.48;99982.98;103550;1285;25309;-53
2022/11/20 03:50:15;;;;;;;77.60;31.90;;;;;;;-5.63;80.29;99983.60;103509;1279;22605;-52
2022/11/20 03:52:46;;;;;;;82.40;29.80;;;;;;;-5.67;80.15;99980.61;103461;1303;22468;-55
2022/11/20 03:55:18;;;;;;;74.20;29.70;;;;;;;-5.69;79.96;99978.19;103573;1303;24349;-56
2022/11/20 03:57:49;;;;;;;80.90;29.20;;;;;;;-5.70;80.19;99981.74;103616;1279;26648;-54
2022/11/20 04:00:22;;;;;;;74.20;29.10;;;;;;;-5.73;80.09;99977.92;103429;1279;22638;-57
2022/11/20 04:02:53;;;;;;;78.20;30.10;;;;;;;-5.77;80.23;99981.30;103538;1303;24381;-55
2022/11/20 04:05:27;;;;;;;67.60;30.60;;;;;;;-5.79;79.97;99985.02;103307;1284;22531;-55
2022/11/20 04:07:58;;;;;;;73.20;27.10;;;;;;;-5.81;80.00;99991.55;103508;1289;22520;-57
2022/11/20 04:10:30;;;;;;;75.20;28.30;;;;;;;-5.82;79.92;99987.48;103531;1279;25773;-54
2022/11/20 04:13:01;;;;;;;80.10;31.60;;;;;;;-5.85;80.12;99990.84;103590;1285;22457;-56
2022/11/20 04:15:33;;;;;;;76.50;30.40;;;;;;;-5.89;79.84;99992.90;103486;1279;25599;-56
2022/11/20 04:18:05;;;;;;;71.40;27.20;;;;;;;-5.90;80.17;99991.23;103445;1279;25539;-56
2022/11/20 04:20:36;;;;;;;79.80;27.80;;;;;;;-5.92;79.70;99991.53;103472;1278;22596;-56
2022/11/20 04:23:08;;;;;;;82.80;30.70;;;;;;;-5.99;79.37;99988.30;103518;1275;24312;-54
2022/11/20 04:25:39;;;;;;;86.90;31.50;;;;;;;-6.04;79.77;99986.54;103616;1279;22620;-56
2022/11/20 04:28:10;;;;;;;89.00;33.00;;;;;;;-6.04;80.07;99990.73;103517;1279;22872;-55
2022/11/20 04:30:44;;;;;;;87.70;33.70;;;;;;;-6.04;80.07;99988.17;103460;1297;24231;-56
2022/11/20 04:33:16;;;;;;;80.10;31.90;;;;;;;-6.08;80.04;99985.26;103465;1279;22578;-54
2022/11/20 04:35:51;;;;;;;83.10;31.60;;;;;;;-6.15;80.24;99988.13;103554;1279;22994;-57
2022/11/20 04:38:23;;;;;;;76.30;29.40;;;;;;;-6.16;80.60;99990.77;103464;1279;22584;-53
2022/11/20 04:40:59;;;;;;;78.20;28.40;;;;;;;-6.15;80.70;99989.37;103405;1279;22685;-54
2022/11/20 04:43:31;;;;;;;74.90;30.10;;;;;;;-6.16;80.30;99984.01;103456;1290;22557;-56
2022/11/20 04:46:03;;;;;;;87.30;31.40;;;;;;;-6.21;80.24;99984.04;103570;1303;22610;-56
2022/11/20 04:48:35;;;;;;;84.00;31.30;;;;;;;-6.22;80.53;99982.23;103429;1303;25500;-56
2022/11/20 04:51:08;;;;;;;85.70;33.10;;;;;;;-6.21;80.72;99979.23;103476;1272;22532;-54
2022/11/20 04:53:40;;;;;;;83.70;32.20;;;;;;;-6.20;80.73;99978.69;103434;1303;22746;-56
2022/11/20 04:56:13;;;;;;;82.40;30.70;;;;;;;-6.20;80.67;99973.58;103494;1303;24299;-55
2022/11/20 04:58:45;;;;;;;81.10;30.20;;;;;;;-6.19;80.43;99971.18;103368;1279;22620;-56
2022/11/20 05:01:20;;;;;;;78.00;29.60;;;;;;;-6.20;80.44;99969.52;103316;1281;22544;-54
2022/11/20 05:03:53;;;;;;;82.00;30.70;;;;;;;-6.25;79.98;99970.33;103516;1289;26730;-54
2022/11/20 05:06:25;;;;;;;77.00;28.90;;;;;;;-6.31;80.09;99964.92;103839;1279;24221;-56
2022/11/20 05:08:56;;;;;;;72.40;28.70;;;;;;;-6.34;80.05;99960.31;103474;1272;22601;-53
2022/11/20 05:11:30;;;;;;;88.40;32.50;;;;;;;-6.36;80.33;99957.74;103323;1272;22740;-57
2022/11/20 05:14:02;;;;;;;86.10;32.90;;;;;;;-6.35;80.42;99953.54;103401;1279;25427;-57
2022/11/20 05:16:35;;;;;;;83.30;30.60;;;;;;;-6.35;80.71;99947.81;103439;1279;22590;-56
2022/11/20 05:19:06;;;;;;;83.60;33.90;;;;;;;-6.32;80.89;99951.17;103558;1272;22656;-56
2022/11/20 05:21:38;;;;;;;95.80;34.20;;;;;;;-6.33;80.49;99947.13;103508;1288;25492;-64
2022/11/20 05:24:09;;;;;;;87.60;37.10;;;;;;;-6.37;80.40;99946.71;103439;1271;25543;-55
2022/11/20 05:26:41;;;;;;;90.10;35.00;;;;;;;-6.36;80.67;99947.41;103315;1287;22562;-57
2022/11/20 05:29:14;;;;;;;91.40;35.30;;;;;;;-6.35;80.77;99945.79;103415;1278;22647;-56
2022/11/20 05:31:45;;;;;;;87.10;36.20;;;;;;;-6.36;80.41;99949.96;103531;1279;22871;-55
2022/11/20 05:34:17;;;;;;;94.40;36.50;;;;;;;-6.39;80.25;99944.05;103330;1279;22544;-55
2022/11/20 05:36:48;;;;;;;89.30;32.70;;;;;;;-6.40;80.42;99947.77;103868;1279;22482;-55
2022/11/20 05:39:20;;;;;;;89.10;34.50;;;;;;;-6.41;80.64;99945.58;103533;1271;22497;-56
2022/11/20 05:42:29;;;;;;;92.50;35.10;;;;;;;-6.40;80.70;99943.71;103622;1279;24574;-55
2022/11/20 05:44:43;;;;;;;94.70;36.50;;;;;;;-6.39;80.84;99939.00;103338;1279;22593;-56
2022/11/20 05:47:15;;;;;;;88.30;35.10;;;;;;;-6.38;80.95;99941.80;103649;1279;23252;-55
2022/11/20 05:49:48;;;;;;;95.40;36.50;;;;;;;-6.38;80.93;99939.70;103587;1271;24379;-56
2022/11/20 05:52:20;;;;;;;100.50;36.30;;;;;;;-6.36;81.08;99942.28;103336;1289;24617;-55
2022/11/20 05:54:51;;;;;;;89.10;35.60;;;;;;;-6.35;81.00;99942.45;107283;1284;23042;-55
2022/11/20 05:57:23;;;;;;;90.80;35.30;;;;;;;-6.34;81.07;99945.64;106715;1272;24574;-57
2022/11/20 05:59:55;;;;;;;85.30;32.50;;;;;;;-6.34;80.98;99944.72;107003;1279;22188;-57
2022/11/20 06:02:26;;;;;;;86.00;33.30;;;;;;;-6.32;80.97;99939.92;107010;1279;22993;-53
2022/11/20 06:04:57;;;;;;;85.90;32.40;;;;;;;-6.33;80.84;99935.56;107017;1279;22271;-54
2022/11/20 06:07:29;;;;;;;87.80;36.80;;;;;;;-6.33;80.82;99934.87;105193;1271;25473;-55
2022/11/20 06:10:00;;;;;;;84.60;33.60;;;;;;;-6.34;80.65;99928.26;103533;1303;25716;-57
2022/11/20 06:12:33;;;;;;;80.80;33.80;;;;;;;-6.35;80.75;99934.23;103611;1281;24242;-55
2022/11/20 06:15:05;;;;;;;85.90;33.50;;;;;;;-6.36;80.82;99933.20;103349;1279;22587;-56
2022/11/20 06:17:37;;;;;;;91.80;34.80;;;;;;;-6.36;80.89;99927.85;103388;1278;26847;-59
2022/11/20 06:20:10;;;;;;;84.50;31.20;;;;;;;-6.37;80.83;99928.15;103392;1272;22490;-53
2022/11/20 06:22:42;;;;;;;89.10;35.40;;;;;;;-6.38;81.12;99924.04;103435;1279;22560;-63
2022/11/20 06:25:13;;;;;;;87.80;33.90;;;;;;;-6.37;80.93;99925.59;103493;1278;24239;-55
2022/11/20 06:27:45;;;;;;;94.30;35.50;;;;;;;-6.37;80.82;99923.88;103483;1303;24291;-55
2022/11/20 06:30:17;;;;;;;101.50;37.80;;;;;;;-6.38;80.75;99922.17;103424;1272;22777;-55
2022/11/20 06:32:49;;;;;;;88.40;35.10;;;;;;;-6.38;80.77;99918.29;103429;1275;22543;-56
2022/11/20 06:35:21;;;;;;;93.10;34.30;;;;;;;-6.40;80.55;99918.13;103397;1303;22647;-56
2022/11/20 06:37:53;;;;;;;84.30;34.40;;;;;;;-6.43;80.56;99917.23;103466;1272;22682;-57
2022/11/20 06:40:24;;;;;;;88.50;35.00;;;;;;;-6.45;80.72;99921.31;103362;1279;25574;-57
2022/11/20 06:42:57;;;;;;;84.20;32.60;;;;;;;-6.46;80.77;99920.07;103460;1303;24424;-55
2022/11/20 06:45:31;;;;;;;79.90;31.50;;;;;;;-6.46;80.97;99920.16;103615;1269;25449;-56
2022/11/20 06:48:04;;;;;;;88.10;35.20;;;;;;;-6.44;81.15;99923.11;103670;1272;22764;-60
2022/11/20 06:50:37;;;;;;;86.40;32.00;;;;;;;-6.41;81.30;99922.30;103433;1272;22786;-55
2022/11/20 06:53:08;;;;;;;84.10;34.80;;;;;;;-6.37;81.51;99921.71;103673;1278;22611;-56
2022/11/20 06:55:43;;;;;;;92.80;33.90;;;;;;;-6.35;81.41;99921.89;103448;1272;22990;-57
2022/11/20 06:58:15;;;;;;;79.90;32.60;;;;;;;-6.36;81.47;99925.91;103585;1280;25533;-57
2022/11/20 07:00:47;;;;;;;93.10;35.10;;;;;;;-6.36;81.59;99925.30;103572;1279;22987;-58
2022/11/20 07:03:19;;;;;;;93.10;35.10;;;;;;;-6.34;81.58;99927.02;103599;1271;24261;-55
2022/11/20 07:05:51;;;;;;;81.60;33.00;;;;;;;-6.33;81.55;99929.59;103429;1303;23350;-57
2022/11/20 07:08:23;;;;;;;81.90;34.00;;;;;;;-6.31;81.55;99935.81;103362;1303;22866;-55
2022/11/20 07:10:58;;;;;;;88.00;34.20;;;;;;;-6.31;81.49;99938.60;103501;1276;25484;-56
2022/11/20 07:13:29;;;;;;;83.40;34.90;;;;;;;-6.30;81.47;99942.11;103604;1303;24265;-56
2022/11/20 07:16:05;;;;;;;89.40;35.00;;;;;;;-6.29;81.56;99941.19;103707;1285;22683;-57
2022/11/20 07:18:36;;;;;;;86.50;33.70;;;;;;;-6.28;81.52;99938.25;103794;1279;22536;-57
2022/11/20 07:21:10;;;;;;;88.80;34.20;;;;;;;-6.24;81.69;99939.30;103669;1303;22573;-57
2022/11/20 07:23:42;;;;;;;86.90;33.50;;;;;;;-6.21;81.89;99936.38;103650;1272;23203;-56
2022/11/20 07:26:17;;;;;;;94.40;37.60;;;;;;;-6.18;82.09;99930.13;103551;1279;27248;-56
2022/11/20 07:28:49;;;;;;;96.30;38.50;;;;;;;-6.14;82.21;99931.10;103457;1287;22917;-56
2022/11/20 07:31:21;;;;;;;97.40;37.90;;;;;;;-6.10;82.35;99922.27;103501;1279;23657;-56
2022/11/20 07:33:53;;;;;;;82.60;35.70;;;;;;;-6.08;82.58;99917.09;103508;1303;25548;-56
2022/11/20 07:36:28;;;;;;;81.60;33.30;;;;;;;-6.04;82.69;99914.88;103386;1271;25535;-55
2022/11/20 07:38:59;;;;;;;82.00;31.40;;;;;;;-6.01;82.94;99913.11;103383;1279;22586;-57
2022/11/20 07:41:31;;;;;;;84.70;33.20;;;;;;;-5.97;82.95;99917.10;103362;1272;22647;-59
2022/11/20 07:44:04;;;;;;;86.50;33.40;;;;;;;-5.94;82.96;99916.11;103474;1271;24853;-59
2022/11/20 07:46:37;;;;;;;79.20;30.50;;;;;;;-5.91;83.01;99913.27;103426;1279;22888;-57
2022/11/20 07:49:09;;;;;;;84.10;31.10;;;;;;;-5.86;83.06;99913.84;103533;1279;22752;-54
2022/11/20 07:51:42;;;;;;;82.20;32.70;;;;;;;-5.84;83.02;99911.52;103592;1279;24984;-59
2022/11/20 07:54:15;;;;;;;81.10;32.20;;;;;;;-5.81;82.98;99911.38;103589;1279;22626;-56
2022/11/20 07:56:47;;;;;;;90.90;35.30;;;;;;;-5.78;83.11;99906.20;103694;1272;24227;-56
2022/11/20 07:59:19;;;;;;;82.90;34.20;;;;;;;-5.72;83.31;99901.71;103584;1279;25615;-57
2022/11/20 08:01:51;;;;;;;91.70;34.90;;;;;;;-5.69;83.55;99900.75;103446;1271;22587;-58
2022/11/20 08:04:23;;;;;;;94.90;39.10;;;;;;;-5.65;83.60;99903.33;103307;1272;22642;-56
2022/11/20 08:06:56;;;;;;;97.80;36.30;;;;;;;-5.59;83.61;99905.92;103566;1303;22674;-56
2022/11/20 08:09:29;;;;;;;95.00;37.60;;;;;;;-5.54;83.66;99904.31;103621;1271;22763;-55
2022/11/20 08:14:50;;;;;;;83.20;32.60;;;;;;;-5.44;84.01;99901.84;103336;1295;22694;-52
2022/11/20 08:17:22;;;;;;;82.40;31.80;;;;;;;-5.37;84.25;99899.91;103324;1271;22619;-56
2022/11/20 08:19:53;;;;;;;83.90;33.00;;;;;;;-5.31;84.29;99897.70;103268;1279;25060;-56
2022/11/20 08:22:25;;;;;;;77.80;29.20;;;;;;;-5.26;84.23;99899.04;103374;1272;22845;-63
2022/11/20 08:24:57;;;;;;;69.00;30.20;;;;;;;-5.21;84.21;99897.90;103371;1303;22978;-58
2022/11/20 08:27:28;;;;;;;75.30;28.50;;;;;;;-5.15;84.39;99898.70;103563;1272;25574;-58
2022/11/20 08:30:00;;;;;;;70.60;28.00;;;;;;;-5.10;84.65;99894.38;103275;1279;22866;-58
2022/11/20 08:32:32;;;;;;;71.60;28.20;;;;;;;-5.04;84.71;99892.85;103523;1277;22558;-58
2022/11/20 08:35:04;;;;;;;72.90;26.00;;;;;;;-4.97;84.55;99887.04;103353;1279;24774;-55
2022/11/20 08:37:37;;;;;;;70.50;25.30;;;;;;;-4.92;84.39;99884.02;103311;1279;23134;-57
2022/11/20 08:40:12;;;;;;;63.50;23.90;;;;;;;-4.86;84.62;99879.38;103422;1303;22963;-55
2022/11/20 08:42:50;;;;;;;66.30;26.00;;;;;;;-4.78;84.71;99876.91;103356;1302;22583;-50
2022/11/20 08:45:22;;;;;;;59.60;24.50;;;;;;;-4.71;84.77;99879.80;103294;1303;22576;-53
2022/11/20 08:47:55;;;;;;;63.40;26.40;;;;;;;-4.65;84.94;99875.30;103340;1271;24734;-53
2022/11/20 08:50:26;;;;;;;75.10;28.00;;;;;;;-4.60;84.92;99878.20;103425;1294;22759;-51
2022/11/20 08:53:02;;;;;;;65.40;27.90;;;;;;;-4.53;84.81;99875.88;103343;1279;22613;-52
2022/11/20 08:55:35;;;;;;;72.00;28.60;;;;;;;-4.48;84.88;99873.39;103374;1279;22531;-53
2022/11/20 08:58:07;;;;;;;70.70;26.60;;;;;;;-4.43;84.80;99871.30;103459;1279;22522;-54
2022/11/20 09:00:39;;;;;;;70.50;29.90;;;;;;;-4.37;84.89;99876.30;103381;1297;24381;-55
2022/11/20 09:03:13;;;;;;;62.40;26.70;;;;;;;-4.30;85.06;99876.15;103318;1285;22499;-55
2022/11/20 09:05:44;;;;;;;70.60;26.80;;;;;;;-4.22;85.37;99877.94;103331;1279;25636;-53
2022/11/20 09:08:16;;;;;;;65.20;25.40;;;;;;;-4.14;85.31;99873.65;103372;1296;22485;-54
2022/11/20 09:10:52;;;;;;;68.50;26.30;;;;;;;-4.07;85.33;99872.64;103360;1278;24580;-51
2022/11/20 09:13:24;;;;;;;72.80;26.10;;;;;;;-4.00;85.27;99866.65;103545;1289;22537;-51
2022/11/20 09:16:01;;;;;;;61.70;25.30;;;;;;;-3.94;85.28;99869.05;103447;1303;23069;-57
2022/11/20 09:18:32;;;;;;;64.20;25.20;;;;;;;-3.88;85.27;99866.25;103500;1274;25595;-54
2022/11/20 09:21:07;;;;;;;59.80;25.70;;;;;;;-3.83;85.31;99860.65;103333;1297;24265;-53
2022/11/20 09:23:42;;;;;;;65.60;26.20;;;;;;;-3.77;85.09;99858.67;103327;1278;22537;-55
2022/11/20 09:26:15;;;;;;;66.50;27.80;;;;;;;-3.71;85.17;99864.98;103359;1282;23883;-55
2022/11/20 09:28:47;;;;;;;63.50;24.70;;;;;;;-3.65;85.14;99862.55;103373;1271;24645;-52
2022/11/20 09:31:25;;;;;;;62.50;23.90;;;;;;;-3.58;85.00;99855.92;103668;1276;25424;-55
2022/11/20 09:33:57;;;;;;;61.60;23.20;;;;;;;-3.51;84.87;99850.98;103331;1279;24169;-56
2022/11/20 09:36:29;;;;;;;63.50;24.30;;;;;;;-3.45;84.88;99841.92;103206;1285;22498;-53
2022/11/20 09:39:00;;;;;;;66.90;25.60;;;;;;;-3.38;84.88;99845.41;103326;1297;24211;-55
2022/11/20 09:41:57;;;;;;;60.90;25.70;;;;;;;-3.32;84.93;99840.95;104451;1279;23221;-54
2022/11/20 09:44:44;;;;;;;54.10;23.50;;;;;;;-3.25;84.96;99842.88;103214;1272;22726;-53
2022/11/20 09:47:23;;;;;;;59.20;22.00;;;;;;;-3.16;84.92;99845.25;103350;1279;24366;-53
2022/11/20 09:50:08;;;;;;;61.60;21.60;;;;;;;-3.08;84.78;99841.79;103341;1279;24346;-55
2022/11/20 09:52:49;;;;;;;59.70;23.00;;;;;;;-3.01;84.91;99835.52;103253;1284;22681;-52
2022/11/20 09:55:22;;;;;;;58.70;25.10;;;;;;;-2.96;84.87;99828.46;103238;1279;25287;-56
2022/11/20 09:57:54;;;;;;;65.80;25.80;;;;;;;-2.91;84.68;99820.09;103384;1303;22543;-54
2022/11/20 10:00:27;;;;;;;58.20;23.70;;;;;;;-2.85;84.61;99818.41;103148;1279;350340;-55
2022/11/20 10:03:07;;;;;;;49.40;20.60;;;;;;;-2.78;84.55;99817.36;103336;1280;25465;-53
2022/11/20 10:05:43;;;;;;;50.50;19.80;;;;;;;-2.71;84.27;99816.77;103271;1279;22531;-58
2022/11/20 10:08:22;;;;;;;60.00;21.90;;;;;;;-2.62;84.44;99819.52;103341;1282;26670;-53
2022/11/20 10:11:00;;;;;;;56.10;21.50;;;;;;;-2.56;84.49;99823.08;103077;1282;22572;-54
2022/11/20 10:13:42;;;;;;;52.70;20.80;;;;;;;-2.49;84.15;99821.15;105675;1282;24898;-57
2022/11/20 10:16:27;;;;;;;56.40;22.20;;;;;;;-2.40;84.32;99821.16;103659;1275;26205;-56
2022/11/20 10:19:11;;;;;;;59.80;25.40;;;;;;;-2.36;84.20;99816.61;102874;1281;22975;-55
2022/11/20 10:21:57;;;;;;;63.20;25.50;;;;;;;-2.29;84.30;99809.75;104269;1275;22565;-57
2022/11/20 10:24:43;;;;;;;63.30;24.00;;;;;;;-2.22;84.30;99810.95;106800;1282;22319;-51
2022/11/20 10:27:31;;;;;;;57.40;22.60;;;;;;;-2.16;84.31;99806.75;103286;1275;23107;-53
2022/11/20 10:30:09;;;;;;;45.30;20.30;;;;;;;-2.08;84.02;99798.86;102737;1282;26006;-56
2022/11/20 10:32:43;;;;;;;50.00;18.80;;;;;;;-2.00;83.80;99795.73;104454;1282;22530;-54
2022/11/20 10:35:23;;;;;;;45.40;18.80;;;;;;;-1.91;83.78;99787.38;102922;1284;22719;-56
2022/11/20 10:37:59;;;;;;;52.80;19.20;;;;;;;-1.84;83.77;99784.88;103119;1301;22494;-51
2022/11/20 10:40:36;;;;;;;51.20;19.00;;;;;;;-1.77;83.74;99780.90;103032;1275;22693;-53
2022/11/20 10:43:13;;;;;;;40.50;15.40;;;;;;;-1.72;83.61;99774.67;103125;1274;22548;-52
2022/11/20 10:45:54;;;;;;;43.00;17.00;;;;;;;-1.66;83.48;99769.29;102910;1281;22619;-54
2022/11/20 10:48:26;;;;;;;43.90;16.30;;;;;;;-1.58;83.26;99768.71;103219;1305;25444;-55
2022/11/20 10:51:14;;;;;;;47.20;16.90;;;;;;;-1.52;83.22;99770.37;103259;1275;22515;-56
2022/11/20 10:53:58;;;;;;;42.30;17.30;;;;;;;-1.44;83.13;99774.66;103063;1281;22625;-52
2022/11/20 10:56:36;;;;;;;41.30;15.70;;;;;;;-1.36;82.97;99771.50;103010;1306;22617;-52
2022/11/20 10:59:27;;;;;;;44.70;17.20;;;;;;;-1.29;83.16;99772.52;103131;1281;22555;-52
2022/11/20 11:01:59;;;;;;;45.70;16.10;;;;;;;-1.25;82.84;99774.73;103114;1288;26633;-55
2022/11/20 11:04:38;;;;;;;44.50;16.20;;;;;;;-1.21;82.90;99773.35;103479;1275;24275;-54
2022/11/20 11:07:16;;;;;;;42.80;15.20;;;;;;;-1.17;82.69;99773.61;102912;1282;22882;-53
2022/11/20 11:09:51;;;;;;;43.50;16.70;;;;;;;-1.10;82.55;99769.52;103013;1282;22498;-54
2022/11/20 11:12:25;;;;;;;44.90;17.30;;;;;;;-1.04;82.57;99764.28;102961;1282;25495;-54
2022/11/20 11:14:58;;;;;;;48.30;18.20;;;;;;;-0.98;82.72;99758.55;103002;1282;22426;-55
2022/11/20 11:17:32;;;;;;;39.20;13.70;;;;;;;-0.93;82.44;99753.95;103010;1282;24405;-54
2022/11/20 11:20:16;;;;;;;40.20;14.60;;;;;;;-0.89;82.18;99755.77;103071;1285;22511;-54
2022/11/20 11:22:50;;;;;;;36.90;14.00;;;;;;;-0.85;81.83;99753.92;103339;1299;22513;-55
2022/11/20 11:25:35;;;;;;;42.50;14.70;;;;;;;-0.78;82.03;99750.98;103056;1306;22478;-55
2022/11/20 11:28:27;;;;;;;40.10;15.50;;;;;;;-0.74;82.11;99746.46;103018;1284;22456;-57
2022/11/20 11:30:58;;;;;;;38.60;15.10;;;;;;;-0.71;81.75;99749.48;103083;1280;22676;-54
2022/11/20 11:33:33;;;;;;;35.70;13.70;;;;;;;-0.66;81.69;99741.89;103083;1278;22597;-52
2022/11/20 11:36:18;;;;;;;37.10;14.70;;;;;;;-0.61;81.56;99736.78;102952;1282;22469;-52
2022/11/20 11:38:54;;;;;;;36.40;13.60;;;;;;;-0.57;81.71;99732.55;102802;1306;25688;-57
2022/11/20 11:41:31;;;;;;;38.10;13.00;;;;;;;-0.54;82.01;99730.89;103320;1281;25188;-56
2022/11/20 11:47:11;;;;;;;34.50;13.60;;;;;;;-0.48;81.95;99712.14;102931;1298;24433;-55
2022/11/20 11:49:43;;;;;;;35.90;11.80;;;;;;;-0.46;81.57;99710.67;103154;1288;22534;-53
2022/11/20 11:52:18;;;;;;;31.90;11.30;;;;;;;-0.41;81.33;99716.08;103024;1281;22472;-55
2022/11/20 11:54:54;;;;;;;29.20;10.50;;;;;;;-0.36;81.07;99709.02;103036;1281;22499;-55